DLH3NX EDDF-ENGM
Flight info
| Callsign | DLH3NX |
|---|---|
| Flight time | N/A |
| Altitude | 39000 |
| Route | MARUN3W/25C MARUN Y150 TOLGI DCT ALASA DCT INVOL DCT SABAK/N0439F380 L997 LUNIP |
| Aircraft | A320/M-SDE2E3FGIJ1LORWXYZ/HB1 |
Departure
| Time | 2026-05-07 10:03 |
|---|---|
| Airport | Frankfurt Main Airport (EDDF) |
Arrival
| Time | N/A |
|---|---|
| Airport | Oslo-Gardermoen International Airport (ENGM) |
| Time | Latitude | Longitude | Altitude | Speed | Heading |
|---|---|---|---|---|---|
| 2026-05-07 09:21 | 50.04923 | 8.58945 | 363 ft | 0 kts | 160° |
| 2026-05-07 09:49 | 50.04924 | 8.58945 | 362 ft | 2 kts | 160° |
| 2026-05-07 09:49 | 50.04947 | 8.58931 | 365 ft | 4 kts | 160° |
| 2026-05-07 09:49 | 50.04968 | 8.58919 | 362 ft | 4 kts | 171° |
| 2026-05-07 09:50 | 50.04988 | 8.58927 | 360 ft | 4 kts | 238° |
| 2026-05-07 09:50 | 50.04998 | 8.58962 | 361 ft | 4 kts | 250° |
| 2026-05-07 09:50 | 50.05004 | 8.58987 | 364 ft | 1 kts | 250° |
| 2026-05-07 09:52 | 50.05004 | 8.58986 | 360 ft | 0 kts | 250° |
| 2026-05-07 09:55 | 50.05003 | 8.58984 | 360 ft | 2 kts | 250° |
| 2026-05-07 09:55 | 50.04996 | 8.58955 | 360 ft | 3 kts | 250° |
| 2026-05-07 09:55 | 50.04991 | 8.58933 | 360 ft | 2 kts | 250° |
| 2026-05-07 09:55 | 50.04988 | 8.58919 | 364 ft | 2 kts | 250° |
| 2026-05-07 09:56 | 50.04976 | 8.58870 | 360 ft | 5 kts | 250° |
| 2026-05-07 09:56 | 50.04965 | 8.58822 | 360 ft | 4 kts | 250° |
| 2026-05-07 09:56 | 50.04956 | 8.58786 | 362 ft | 3 kts | 249° |
| 2026-05-07 09:56 | 50.04950 | 8.58761 | 364 ft | 2 kts | 249° |
| 2026-05-07 09:57 | 50.04940 | 8.58720 | 362 ft | 8 kts | 249° |
| 2026-05-07 09:57 | 50.04898 | 8.58681 | 361 ft | 6 kts | 173° |
| 2026-05-07 09:57 | 50.04837 | 8.58713 | 364 ft | 11 kts | 159° |
| 2026-05-07 09:57 | 50.04779 | 8.58747 | 366 ft | 7 kts | 159° |
| 2026-05-07 09:58 | 50.04741 | 8.58767 | 371 ft | 6 kts | 166° |
| 2026-05-07 09:58 | 50.04692 | 8.58767 | 370 ft | 6 kts | 187° |
| 2026-05-07 09:58 | 50.04657 | 8.58760 | 370 ft | 4 kts | 187° |
| 2026-05-07 09:58 | 50.04634 | 8.58756 | 370 ft | 0 kts | 186° |
| 2026-05-07 10:00 | 50.04628 | 8.58755 | 370 ft | 3 kts | 186° |
| 2026-05-07 10:01 | 50.04592 | 8.58726 | 371 ft | 9 kts | 218° |
| 2026-05-07 10:01 | 50.04545 | 8.58665 | 371 ft | 8 kts | 219° |
| 2026-05-07 10:01 | 50.04503 | 8.58611 | 371 ft | 7 kts | 219° |
| 2026-05-07 10:01 | 50.04481 | 8.58561 | 370 ft | 0 kts | 248° |
| 2026-05-07 10:03 | 50.04437 | 8.58382 | 371 ft | 53 kts | 250° |
| 2026-05-07 10:03 | 50.04224 | 8.57484 | 368 ft | 121 kts | 250° |
| 2026-05-07 10:03 | 50.03872 | 8.55998 | 411 ft | 165 kts | 252° |
| 2026-05-07 10:03 | 50.03477 | 8.54334 | 1161 ft | 163 kts | 252° |
| 2026-05-07 10:04 | 50.03078 | 8.52671 | 1888 ft | 169 kts | 252° |
| 2026-05-07 10:04 | 50.02630 | 8.50853 | 2284 ft | 192 kts | 247° |
| 2026-05-07 10:04 | 50.01772 | 8.49146 | 2799 ft | 209 kts | 220° |
| 2026-05-07 10:04 | 50.00470 | 8.48115 | 3461 ft | 215 kts | 195° |
| 2026-05-07 10:05 | 49.98983 | 8.47743 | 4134 ft | 217 kts | 189° |
| 2026-05-07 10:05 | 49.97481 | 8.47412 | 4849 ft | 219 kts | 189° |
| 2026-05-07 10:05 | 49.95974 | 8.47033 | 5506 ft | 221 kts | 196° |
| 2026-05-07 10:05 | 49.94434 | 8.46339 | 5908 ft | 242 kts | 198° |
| 2026-05-07 10:06 | 49.92777 | 8.45530 | 6550 ft | 254 kts | 205° |
| 2026-05-07 10:06 | 49.91372 | 8.43905 | 7340 ft | 254 kts | 235° |
| 2026-05-07 10:06 | 49.90664 | 8.41433 | 8216 ft | 252 kts | 264° |
| 2026-05-07 10:06 | 49.90810 | 8.38757 | 9112 ft | 251 kts | 291° |
| 2026-05-07 10:07 | 49.91761 | 8.36507 | 10015 ft | 253 kts | 319° |
| 2026-05-07 10:07 | 49.93292 | 8.35136 | 10785 ft | 260 kts | 336° |
| 2026-05-07 10:07 | 49.95039 | 8.33996 | 11127 ft | 284 kts | 336° |
| 2026-05-07 10:07 | 49.96941 | 8.32775 | 11420 ft | 308 kts | 337° |
| 2026-05-07 10:08 | 49.98965 | 8.31476 | 11968 ft | 320 kts | 337° |
| 2026-05-07 10:08 | 50.01040 | 8.30139 | 12736 ft | 325 kts | 336° |
| 2026-05-07 10:08 | 50.03159 | 8.28993 | 13486 ft | 331 kts | 347° |
| 2026-05-07 10:08 | 50.05471 | 8.28662 | 14201 ft | 337 kts | 2° |
| 2026-05-07 10:09 | 50.07793 | 8.29296 | 14890 ft | 343 kts | 16° |
| 2026-05-07 10:09 | 50.10066 | 8.30482 | 15578 ft | 346 kts | 17° |
| 2026-05-07 10:09 | 50.11698 | 8.31343 | 16071 ft | 349 kts | 17° |
| 2026-05-07 10:09 | 50.12739 | 8.31893 | 16387 ft | 351 kts | 17° |
| 2026-05-07 10:10 | 50.15058 | 8.33114 | 17111 ft | 353 kts | 17° |
| 2026-05-07 10:10 | 50.16145 | 8.33686 | 17435 ft | 355 kts | 17° |
| 2026-05-07 10:10 | 50.17220 | 8.34250 | 17753 ft | 356 kts | 17° |
| 2026-05-07 10:10 | 50.19581 | 8.35491 | 18412 ft | 360 kts | 17° |
| 2026-05-07 10:11 | 50.21693 | 8.36601 | 18912 ft | 364 kts | 17° |
| 2026-05-07 10:11 | 50.22448 | 8.36998 | 19098 ft | 364 kts | 17° |
| 2026-05-07 10:11 | 50.24862 | 8.38271 | 19708 ft | 367 kts | 17° |
| 2026-05-07 10:11 | 50.27291 | 8.39553 | 20312 ft | 370 kts | 17° |
| 2026-05-07 10:12 | 50.29744 | 8.40848 | 20898 ft | 373 kts | 17° |
| 2026-05-07 10:12 | 50.32208 | 8.42168 | 21481 ft | 376 kts | 18° |
| 2026-05-07 10:12 | 50.34689 | 8.43513 | 22052 ft | 379 kts | 18° |
| 2026-05-07 10:12 | 50.37185 | 8.44879 | 22607 ft | 381 kts | 18° |
| 2026-05-07 10:13 | 50.39697 | 8.46261 | 23142 ft | 385 kts | 18° |
| 2026-05-07 10:13 | 50.42229 | 8.47658 | 23669 ft | 387 kts | 18° |
| 2026-05-07 10:13 | 50.44783 | 8.49065 | 24110 ft | 390 kts | 18° |
| 2026-05-07 10:13 | 50.47350 | 8.50472 | 24563 ft | 393 kts | 18° |
| 2026-05-07 10:14 | 50.49952 | 8.51825 | 25010 ft | 395 kts | 17° |
| 2026-05-07 10:14 | 50.52587 | 8.53104 | 25450 ft | 397 kts | 16° |
| 2026-05-07 10:14 | 50.55244 | 8.54347 | 25888 ft | 400 kts | 15° |
| 2026-05-07 10:14 | 50.57919 | 8.55587 | 26323 ft | 402 kts | 16° |
| 2026-05-07 10:15 | 50.60609 | 8.56840 | 26756 ft | 404 kts | 16° |
| 2026-05-07 10:15 | 50.63309 | 8.58110 | 27198 ft | 406 kts | 16° |
| 2026-05-07 10:15 | 50.66020 | 8.59400 | 27593 ft | 409 kts | 16° |
| 2026-05-07 10:15 | 50.68747 | 8.60710 | 28000 ft | 411 kts | 16° |
| 2026-05-07 10:16 | 50.71451 | 8.62018 | 28409 ft | 413 kts | 17° |
| 2026-05-07 10:16 | 50.74207 | 8.63354 | 28787 ft | 416 kts | 17° |
| 2026-05-07 10:16 | 50.76976 | 8.64699 | 29195 ft | 418 kts | 18° |
| 2026-05-07 10:16 | 50.79667 | 8.66462 | 29549 ft | 421 kts | 27° |
| 2026-05-07 10:17 | 50.82150 | 8.68946 | 29937 ft | 424 kts | 37° |
| 2026-05-07 10:17 | 50.84347 | 8.72077 | 30260 ft | 427 kts | 46° |
| 2026-05-07 10:17 | 50.86226 | 8.75740 | 30545 ft | 431 kts | 52° |
| 2026-05-07 10:17 | 50.88042 | 8.79533 | 30819 ft | 434 kts | 52° |
| 2026-05-07 10:18 | 50.89872 | 8.83353 | 31080 ft | 437 kts | 52° |
| 2026-05-07 10:18 | 50.91716 | 8.87201 | 31336 ft | 440 kts | 52° |
| 2026-05-07 10:18 | 50.93568 | 8.91073 | 31593 ft | 442 kts | 52° |
| 2026-05-07 10:18 | 50.95429 | 8.94965 | 31963 ft | 442 kts | 52° |
| 2026-05-07 10:19 | 50.97285 | 8.98859 | 32303 ft | 443 kts | 52° |
| 2026-05-07 10:19 | 50.99143 | 9.02766 | 32650 ft | 444 kts | 52° |
| 2026-05-07 10:19 | 51.01001 | 9.06680 | 33004 ft | 444 kts | 52° |
| 2026-05-07 10:19 | 51.02862 | 9.10602 | 33343 ft | 445 kts | 52° |
| 2026-05-07 10:20 | 51.04726 | 9.14545 | 33705 ft | 446 kts | 52° |
| 2026-05-07 10:20 | 51.06589 | 9.18493 | 34031 ft | 447 kts | 52° |
| 2026-05-07 10:20 | 51.08572 | 9.22284 | 34316 ft | 447 kts | 44° |
| 2026-05-07 10:20 | 51.10922 | 9.25510 | 34577 ft | 446 kts | 34° |
| 2026-05-07 10:21 | 51.13570 | 9.28066 | 34831 ft | 446 kts | 25° |
| 2026-05-07 10:21 | 51.16447 | 9.29892 | 35065 ft | 445 kts | 15° |
| 2026-05-07 10:21 | 51.19458 | 9.31032 | 35310 ft | 445 kts | 11° |
| 2026-05-07 10:21 | 51.22489 | 9.32071 | 35535 ft | 446 kts | 11° |
| 2026-05-07 10:22 | 51.25528 | 9.33125 | 35781 ft | 447 kts | 11° |
| 2026-05-07 10:22 | 51.28570 | 9.34185 | 36013 ft | 448 kts | 11° |
| 2026-05-07 10:22 | 51.31623 | 9.35249 | 36252 ft | 449 kts | 11° |
| 2026-05-07 10:22 | 51.34675 | 9.36314 | 36482 ft | 450 kts | 11° |
| 2026-05-07 10:23 | 51.37736 | 9.37381 | 36708 ft | 450 kts | 11° |
| 2026-05-07 10:23 | 51.40799 | 9.38447 | 36938 ft | 451 kts | 11° |
| 2026-05-07 10:23 | 51.43866 | 9.39514 | 37006 ft | 450 kts | 11° |
| 2026-05-07 10:24 | 51.49952 | 9.41639 | 37002 ft | 446 kts | 11° |
| 2026-05-07 10:24 | 51.55968 | 9.43755 | 37002 ft | 446 kts | 11° |
| 2026-05-07 10:25 | 51.62030 | 9.45896 | 37005 ft | 446 kts | 11° |
| 2026-05-07 10:25 | 51.68086 | 9.48034 | 37015 ft | 445 kts | 11° |
| 2026-05-07 10:26 | 51.74140 | 9.50172 | 37011 ft | 445 kts | 11° |
| 2026-05-07 10:26 | 51.80187 | 9.52315 | 37011 ft | 445 kts | 11° |
| 2026-05-07 10:27 | 51.86289 | 9.53749 | 37013 ft | 443 kts | 3° |
| 2026-05-07 10:27 | 51.92438 | 9.54568 | 37014 ft | 443 kts | 4° |
| 2026-05-07 10:28 | 51.98582 | 9.55404 | 37008 ft | 443 kts | 4° |
| 2026-05-07 10:28 | 52.04728 | 9.56231 | 37018 ft | 443 kts | 4° |
| 2026-05-07 10:29 | 52.10876 | 9.57064 | 37018 ft | 443 kts | 4° |
| 2026-05-07 10:29 | 52.16793 | 9.57876 | 37026 ft | 443 kts | 4° |
| 2026-05-07 10:30 | 52.26009 | 9.59134 | 37033 ft | 443 kts | 3° |
| 2026-05-07 10:30 | 52.32147 | 9.59973 | 37042 ft | 443 kts | 4° |
| 2026-05-07 10:31 | 52.38294 | 9.60819 | 37051 ft | 443 kts | 4° |
| 2026-05-07 10:31 | 52.43400 | 9.61531 | 37051 ft | 443 kts | 4° |
| 2026-05-07 10:32 | 52.50532 | 9.62510 | 37050 ft | 442 kts | 4° |
| 2026-05-07 10:32 | 52.56668 | 9.63357 | 37051 ft | 442 kts | 4° |